createdAt,value
2022-09-07T00:03:40.175Z,101275.36
2022-09-07T00:08:45.994Z,101271.30
2022-09-07T00:13:51.834Z,101269.02
2022-09-07T00:18:59.467Z,101265.25
2022-09-07T00:24:05.765Z,101261.80
2022-09-07T00:29:11.842Z,101254.70
2022-09-07T00:34:17.694Z,101253.63
2022-09-07T00:39:23.534Z,101253.91
2022-09-07T00:45:10.088Z,101252.88
2022-09-07T00:50:23.835Z,101246.17
2022-09-07T00:55:32.593Z,101246.52
2022-09-07T01:00:39.767Z,101252.02
2022-09-07T01:05:50.673Z,101251.25
2022-09-07T01:10:58.289Z,101252.57
2022-09-07T01:16:15.926Z,101251.33
2022-09-07T01:21:27.546Z,101249.71
2022-09-07T01:27:04.271Z,101246.22
2022-09-07T01:32:20.210Z,101243.79
2022-09-07T01:37:33.015Z,101242.23
2022-09-07T01:42:51.174Z,101238.73
2022-09-07T01:48:01.054Z,101242.27
2022-09-07T01:53:11.901Z,101246.31
2022-09-07T01:58:24.118Z,101248.45
2022-09-07T02:03:35.838Z,101243.45
2022-09-07T02:08:48.129Z,101242.95
2022-09-07T02:13:59.335Z,101242.90
2022-09-07T02:19:05.270Z,101237.99
2022-09-07T02:24:16.321Z,101237.05
2022-09-07T02:29:22.487Z,101231.83
2022-09-07T02:34:28.268Z,101229.86
2022-09-07T02:39:35.068Z,101226.55
2022-09-07T02:44:45.689Z,101222.77
2022-09-07T02:50:10.260Z,101220.99
2022-09-07T02:55:27.236Z,101214.71
2022-09-07T03:00:39.839Z,101217.39
2022-09-07T03:05:50.454Z,101214.77
2022-09-07T03:10:58.265Z,101212.02
2022-09-07T03:16:04.487Z,101217.21
2022-09-07T03:21:10.665Z,101215.30
2022-09-07T03:26:25.273Z,101209.39
2022-09-07T03:31:33.866Z,101209.69
2022-09-07T03:36:40.275Z,101206.41
2022-09-07T03:41:46.007Z,101207.17
2022-09-07T03:46:52.306Z,101209.61
2022-09-07T03:51:58.306Z,101214.58
2022-09-07T03:57:04.597Z,101213.66
2022-09-07T04:02:10.863Z,101213.61
2022-09-07T04:07:17.002Z,101213.91
2022-09-07T04:12:23.129Z,101215.15
2022-09-07T04:17:28.902Z,101212.61
2022-09-07T04:22:34.992Z,101219.17
2022-09-07T04:27:40.869Z,101222.29
2022-09-07T04:32:48.106Z,101221.27
2022-09-07T04:37:53.988Z,101226.30
2022-09-07T04:43:00.216Z,101225.48
2022-09-07T04:48:06.567Z,101226.80
2022-09-07T04:53:12.633Z,101226.79
2022-09-07T04:58:18.419Z,101217.74
2022-09-07T05:03:24.313Z,101219.12
2022-09-07T05:08:30.833Z,101222.73
2022-09-07T05:13:37.306Z,101222.04
2022-09-07T05:18:43.683Z,101224.33
2022-09-07T05:23:52.573Z,101226.92
2022-09-07T05:39:37.962Z,101218.47
2022-09-07T05:44:45.329Z,101219.65
2022-09-07T05:49:55.247Z,101216.95
2022-09-07T05:55:28.287Z,101215.65
2022-09-07T06:00:29.116Z,101203.39
2022-09-07T06:05:35.488Z,101205.38
2022-09-07T06:15:51.941Z,101206.08
2022-09-07T06:21:01.549Z,101199.27
2022-09-07T06:26:09.761Z,101189.78
2022-09-07T06:31:17.662Z,101188.70
2022-09-07T06:36:25.146Z,101184.09
2022-09-07T06:52:08.343Z,101168.07
2022-09-07T06:57:14.508Z,101165.68
2022-09-07T07:02:20.451Z,101170.19
2022-09-07T07:07:26.474Z,101168.80
2022-09-07T07:17:43.800Z,101164.36
2022-09-07T07:22:52.907Z,101168.41
2022-09-07T07:33:25.063Z,101182.25
2022-09-07T07:44:00.529Z,101192.45
2022-09-07T07:49:06.540Z,101196.54
2022-09-07T07:54:12.331Z,101187.26
2022-09-07T07:59:18.305Z,101192.34
2022-09-07T08:04:48.986Z,101189.40
2022-09-07T08:09:54.738Z,101181.43
2022-09-07T08:15:00.587Z,101176.28
2022-09-07T08:20:07.388Z,101171.90
2022-09-07T08:25:13.038Z,101172.02
2022-09-07T08:30:19.091Z,101167.88
2022-09-07T08:35:24.821Z,101163.29
2022-09-07T08:40:31.204Z,101156.53
2022-09-07T08:45:42.603Z,101156.98
2022-09-07T08:50:56.190Z,101152.06
2022-09-07T08:56:05.689Z,101142.45
2022-09-07T09:06:49.123Z,101145.27
2022-09-07T09:12:06.651Z,101134.34
2022-09-07T09:17:24.840Z,101126.39
2022-09-07T09:22:31.096Z,101121.65
2022-09-07T09:27:36.981Z,101114.25
2022-09-07T09:32:44.523Z,101113.42
2022-09-07T09:37:50.361Z,101106.52
2022-09-07T09:43:05.190Z,101103.80
2022-09-07T09:48:18.485Z,101103.73
2022-09-07T09:53:28.069Z,101098.48
2022-09-07T10:04:21.496Z,101090.15
2022-09-07T10:09:38.135Z,101086.20
2022-09-07T10:14:47.003Z,101079.04
2022-09-07T10:19:52.841Z,101069.09
2022-09-07T10:25:00.816Z,101072.39
2022-09-07T10:30:13.812Z,101070.31
2022-09-07T10:35:27.257Z,101065.22
2022-09-07T10:40:40.531Z,101054.67
2022-09-07T10:45:59.261Z,101044.80
2022-09-07T10:51:14.404Z,101042.91
2022-09-07T10:56:24.590Z,101038.48
2022-09-07T11:01:43.738Z,101037.01
2022-09-07T11:06:55.107Z,101032.48
2022-09-07T11:12:05.459Z,101031.35
2022-09-07T11:17:18.055Z,101037.43
2022-09-07T11:22:35.336Z,101042.13
2022-09-07T11:27:46.355Z,101026.55
2022-09-07T11:33:01.735Z,101022.20
2022-09-07T11:38:20.146Z,101016.39
2022-09-07T11:43:30.778Z,101016.05
2022-09-07T11:48:42.563Z,101001.23
2022-09-07T11:53:52.873Z,100999.89
2022-09-07T11:59:03.583Z,100994.16
2022-09-07T12:04:40.167Z,100987.83
2022-09-07T12:10:07.230Z,100984.67
2022-09-07T12:15:26.951Z,100985.75
2022-09-07T12:20:42.806Z,100990.73
2022-09-07T12:25:49.797Z,100993.74
2022-09-07T12:30:59.543Z,100990.16
2022-09-07T12:36:41.525Z,100987.30
2022-09-07T12:42:32.029Z,100975.42
2022-09-07T12:47:34.218Z,100970.02
2022-09-07T12:53:17.995Z,100968.25
2022-09-07T12:58:38.008Z,100960.06
2022-09-07T13:04:05.175Z,100959.86
2022-09-07T13:09:31.269Z,100952.62
2022-09-07T13:14:38.699Z,100945.60
2022-09-07T13:20:06.825Z,100946.87
2022-09-07T13:25:59.118Z,100940.34
2022-09-07T13:31:24.103Z,100932.27
2022-09-07T13:36:40.523Z,100927.62
2022-09-07T13:41:52.244Z,100927.63
2022-09-07T13:47:12.923Z,100915.02
2022-09-07T13:52:24.688Z,100913.64
2022-09-07T13:57:41.751Z,100906.49
2022-09-07T14:02:56.590Z,100909.48
2022-09-07T14:08:03.366Z,100913.41
2022-09-07T14:13:14.063Z,100914.48
2022-09-07T14:18:27.479Z,100905.58
2022-09-07T14:23:36.725Z,100894.17
2022-09-07T14:28:42.822Z,100890.50
2022-09-07T14:33:52.800Z,100886.15
2022-09-07T14:39:06.227Z,100886.17
2022-09-07T14:44:30.292Z,100879.65
2022-09-07T14:49:38.963Z,100874.19
2022-09-07T14:54:50.742Z,100866.34
2022-09-07T14:59:57.438Z,100852.95
2022-09-07T15:05:25.759Z,100852.56
2022-09-07T15:10:35.577Z,100853.45
2022-09-07T15:15:46.730Z,100850.63
2022-09-07T15:20:53.036Z,100848.91
2022-09-07T15:25:59.007Z,100845.95
2022-09-07T15:36:32.056Z,100847.02
2022-09-07T15:42:59.536Z,100844.46
2022-09-07T15:47:47.254Z,100844.64
2022-09-07T15:52:53.106Z,100853.01
2022-09-07T15:58:10.997Z,100858.20
2022-09-07T16:06:57.273Z,100854.54
2022-09-07T16:17:35.627Z,100852.30
2022-09-07T16:28:08.871Z,100839.34
2022-09-07T16:33:14.786Z,100838.98
2022-09-07T16:43:46.627Z,100831.58
2022-09-07T16:48:53.717Z,100835.61
2022-09-07T16:53:59.773Z,100829.65
2022-09-07T16:59:06.943Z,100835.78
2022-09-07T17:04:13.053Z,100835.91
2022-09-07T17:09:18.961Z,100836.99
2022-09-07T17:14:24.835Z,100842.53
2022-09-07T17:19:30.877Z,100845.86
2022-09-07T17:24:37.100Z,100846.11
2022-09-07T17:29:43.163Z,100841.61
2022-09-07T17:34:49.497Z,100839.80
2022-09-07T17:39:55.300Z,100846.52
2022-09-07T17:45:02.716Z,100861.09
2022-09-07T17:50:09.976Z,100865.27
2022-09-07T17:55:16.057Z,100867.95
2022-09-07T18:00:21.799Z,100874.82
2022-09-07T18:05:27.531Z,100880.47
2022-09-07T18:16:02.244Z,100874.90
2022-09-07T18:21:15.449Z,100878.02
2022-09-07T18:26:22.020Z,100870.89
2022-09-07T18:31:28.310Z,100869.58
2022-09-07T18:36:35.760Z,100869.95
2022-09-07T18:41:42.126Z,100869.27
2022-09-07T18:46:47.933Z,100869.13
2022-09-07T18:57:19.333Z,100873.92
2022-09-07T19:02:25.036Z,100871.80
2022-09-07T19:07:31.143Z,100868.38
2022-09-07T19:12:36.955Z,100861.80
2022-09-07T19:17:42.761Z,100866.44
2022-09-07T19:22:48.778Z,100863.81
2022-09-07T19:27:54.655Z,100858.67
2022-09-07T19:33:04.197Z,100856.16
2022-09-07T19:38:12.543Z,100858.29
2022-09-07T19:43:18.355Z,100862.88
2022-09-07T19:48:24.094Z,100865.43
2022-09-07T19:53:32.732Z,100867.45
2022-09-07T19:58:40.317Z,100868.04
2022-09-07T20:03:51.003Z,100870.85
2022-09-07T20:08:57.805Z,100873.66
2022-09-07T20:14:03.777Z,100875.04
2022-09-07T20:19:11.087Z,100877.27
2022-09-07T20:24:22.144Z,100880.27
2022-09-07T20:29:28.998Z,100873.80
2022-09-07T20:34:35.266Z,100874.34
2022-09-07T20:39:40.923Z,100877.59
2022-09-07T20:44:46.770Z,100875.11
2022-09-07T20:49:52.545Z,100869.15
2022-09-07T20:54:58.230Z,100863.71
2022-09-07T21:00:05.823Z,100866.63
2022-09-07T21:05:11.830Z,100866.86
2022-09-07T21:10:17.630Z,100867.83
2022-09-07T21:15:23.454Z,100869.21
2022-09-07T21:20:29.136Z,100873.70
2022-09-07T21:25:41.776Z,100876.50
2022-09-07T21:30:57.489Z,100874.84
2022-09-07T21:36:07.630Z,100886.75
2022-09-07T21:41:15.575Z,100886.35
2022-09-07T21:46:21.447Z,100889.94
2022-09-07T21:51:27.979Z,100883.25
2022-09-07T21:56:33.882Z,100886.89
2022-09-07T22:01:40.802Z,100883.77
2022-09-07T22:06:46.731Z,100883.00
2022-09-07T22:11:52.622Z,100886.10
2022-09-07T22:16:58.321Z,100880.66
2022-09-07T22:22:04.174Z,100872.84
2022-09-07T22:27:10.058Z,100866.98
2022-09-07T22:32:15.745Z,100867.30
2022-09-07T22:37:21.812Z,100865.21
2022-09-07T22:42:27.588Z,100858.63
2022-09-07T22:47:33.569Z,100849.71
2022-09-07T22:52:39.478Z,100856.23
2022-09-07T22:57:46.034Z,100856.91
2022-09-07T23:02:51.879Z,100862.90
2022-09-07T23:07:57.583Z,100864.73
2022-09-07T23:13:03.805Z,100872.27
2022-09-07T23:18:12.115Z,100865.61
2022-09-07T23:23:18.479Z,100870.20
2022-09-07T23:28:24.120Z,100873.77
2022-09-07T23:33:30.418Z,100870.36
2022-09-07T23:38:36.413Z,100863.27
2022-09-07T23:43:44.149Z,100860.20
2022-09-07T23:48:50.666Z,100849.16
2022-09-07T23:53:56.430Z,100853.23
2022-09-07T23:59:02.374Z,100850.38
